createdAt,value
2018-05-01T00:00:15.632Z,9.80
2018-05-01T00:00:47.309Z,9.80
2018-05-01T00:01:18.944Z,9.80
2018-05-01T00:01:50.567Z,9.80
2018-05-01T00:02:22.200Z,9.80
2018-05-01T00:02:53.823Z,9.80
2018-05-01T00:03:25.464Z,9.70
2018-05-01T00:03:57.133Z,9.70
2018-05-01T00:04:28.776Z,9.80
2018-05-01T00:05:00.414Z,9.70
2018-05-01T00:05:32.060Z,9.70
2018-05-01T00:06:03.726Z,9.70
2018-05-01T00:06:35.409Z,9.70
2018-05-01T00:07:07.051Z,9.70
2018-05-01T00:07:38.684Z,9.70
2018-05-01T00:08:10.302Z,9.70
2018-05-01T00:08:41.976Z,9.70
2018-05-01T00:09:13.611Z,9.70
2018-05-01T00:09:45.235Z,9.70
2018-05-01T00:10:16.907Z,9.70
2018-05-01T00:10:48.562Z,9.70
2018-05-01T00:11:20.225Z,9.60
2018-05-01T00:11:51.886Z,9.60
2018-05-01T00:12:23.532Z,9.70
2018-05-01T00:12:55.170Z,9.70
2018-05-01T00:13:26.815Z,9.70
2018-05-01T00:13:58.501Z,9.70
2018-05-01T00:14:30.167Z,9.60
2018-05-01T00:15:01.797Z,9.70
2018-05-01T00:15:33.427Z,9.60
2018-05-01T00:16:05.056Z,9.60
2018-05-01T00:16:36.692Z,9.60
2018-05-01T00:17:08.298Z,9.60
2018-05-01T00:17:39.940Z,9.60
2018-05-01T00:18:11.590Z,9.50
2018-05-01T00:18:43.210Z,9.60
2018-05-01T00:19:14.835Z,9.60
2018-05-01T00:19:46.461Z,9.50
2018-05-01T00:20:18.106Z,9.40
2018-05-01T00:20:49.760Z,9.50
2018-05-01T00:21:21.451Z,9.50
2018-05-01T00:21:53.098Z,9.50
2018-05-01T00:22:24.736Z,9.40
2018-05-01T00:22:56.359Z,9.40
2018-05-01T00:23:28.016Z,9.40
2018-05-01T00:23:59.634Z,9.40
2018-05-01T00:24:31.270Z,9.40
2018-05-01T00:25:02.967Z,9.40
2018-05-01T00:25:34.620Z,9.50
2018-05-01T00:26:06.259Z,9.50
2018-05-01T00:26:37.904Z,9.50
2018-05-01T00:27:09.519Z,9.50
2018-05-01T00:27:41.139Z,9.50
2018-05-01T00:28:12.765Z,9.50
2018-05-01T00:28:44.390Z,9.40
2018-05-01T00:29:16.008Z,9.40
2018-05-01T00:29:47.660Z,9.40
2018-05-01T00:30:19.308Z,9.40
2018-05-01T00:30:50.952Z,9.50
2018-05-01T00:31:22.616Z,9.40
2018-05-01T00:31:54.300Z,9.50
2018-05-01T00:32:25.932Z,9.50
2018-05-01T00:32:57.556Z,9.40
2018-05-01T00:33:29.176Z,9.40
2018-05-01T00:34:00.816Z,9.50
2018-05-01T00:34:32.466Z,9.40
2018-05-01T00:35:04.101Z,9.40
2018-05-01T00:35:35.757Z,9.40
2018-05-01T00:36:07.389Z,9.40
2018-05-01T00:36:39.030Z,9.40
2018-05-01T00:37:10.660Z,9.40
2018-05-01T00:37:42.316Z,9.40
2018-05-01T00:38:13.966Z,9.40
2018-05-01T00:38:45.590Z,9.30
2018-05-01T00:39:17.245Z,9.30
2018-05-01T00:39:48.904Z,9.40
2018-05-01T00:40:20.530Z,9.40
2018-05-01T00:40:52.188Z,9.40
2018-05-01T00:41:23.832Z,9.40
2018-05-01T00:41:55.459Z,9.40
2018-05-01T00:42:27.118Z,9.40
2018-05-01T00:42:58.755Z,9.40
2018-05-01T00:43:30.387Z,9.30
2018-05-01T00:44:02.050Z,9.30
2018-05-01T00:44:33.674Z,9.30
2018-05-01T00:45:05.336Z,9.30
2018-05-01T00:45:36.986Z,9.40
2018-05-01T00:46:08.650Z,9.30
2018-05-01T00:46:40.297Z,9.30
2018-05-01T00:47:11.996Z,9.30
2018-05-01T00:47:43.672Z,9.30
2018-05-01T00:48:15.315Z,9.30
2018-05-01T00:48:46.924Z,9.30
2018-05-01T00:49:18.562Z,9.20
2018-05-01T00:49:50.237Z,9.30
2018-05-01T00:50:21.900Z,9.30
2018-05-01T00:50:53.564Z,9.30
2018-05-01T00:51:25.265Z,9.30
2018-05-01T00:51:56.834Z,9.30
2018-05-01T00:52:43.756Z,9.30
2018-05-01T00:53:15.388Z,9.30
2018-05-01T00:53:47.007Z,9.20
2018-05-01T00:54:18.626Z,9.20
2018-05-01T00:54:50.262Z,9.20
2018-05-01T00:55:21.886Z,9.20
2018-05-01T00:55:53.525Z,9.20
2018-05-01T00:56:25.144Z,9.20
2018-05-01T00:56:56.760Z,9.20
2018-05-01T00:57:28.416Z,9.20
2018-05-01T00:58:00.034Z,9.20
2018-05-01T00:58:31.660Z,9.20
2018-05-01T00:59:03.312Z,9.20
2018-05-01T00:59:34.944Z,9.20
2018-05-01T01:00:06.644Z,9.20
2018-05-01T01:00:38.313Z,9.10
2018-05-01T01:01:09.969Z,9.20
2018-05-01T01:01:41.620Z,9.20
2018-05-01T01:02:13.265Z,9.10
2018-05-01T01:02:44.899Z,9.20
2018-05-01T01:03:16.570Z,9.20
2018-05-01T01:03:48.210Z,9.20
2018-05-01T01:04:19.863Z,9.20
2018-05-01T01:04:51.490Z,9.20
2018-05-01T01:05:23.119Z,9.20
2018-05-01T01:05:54.756Z,9.20
2018-05-01T01:06:26.388Z,9.30
2018-05-01T01:06:58.022Z,9.20
2018-05-01T01:07:29.649Z,9.30
2018-05-01T01:08:01.308Z,9.30
2018-05-01T01:08:32.960Z,9.30
2018-05-01T01:09:04.627Z,9.20
2018-05-01T01:09:36.295Z,9.20
2018-05-01T01:10:07.927Z,9.20
2018-05-01T01:10:39.567Z,9.20
2018-05-01T01:11:11.281Z,9.20
2018-05-01T01:11:42.859Z,9.20
2018-05-01T01:12:14.494Z,9.20
2018-05-01T01:12:46.180Z,9.20
2018-05-01T01:13:17.825Z,9.10
2018-05-01T01:13:49.503Z,9.20
2018-05-01T01:14:21.169Z,9.20
2018-05-01T01:14:52.843Z,9.20
2018-05-01T01:15:24.529Z,9.20
2018-05-01T01:15:56.168Z,9.10
2018-05-01T01:16:27.816Z,9.20
2018-05-01T01:16:59.466Z,9.00
2018-05-01T01:17:31.122Z,9.10
2018-05-01T01:18:02.781Z,9.10
2018-05-01T01:18:34.423Z,9.10
2018-05-01T01:19:06.047Z,9.10
2018-05-01T01:19:37.716Z,9.20
2018-05-01T01:20:09.390Z,9.00
2018-05-01T01:20:41.050Z,9.10
2018-05-01T01:21:12.701Z,9.10
2018-05-01T01:21:44.331Z,9.10
2018-05-01T01:22:15.969Z,9.10
2018-05-01T01:22:47.588Z,9.20
2018-05-01T01:23:19.234Z,9.20
2018-05-01T01:23:50.837Z,9.10
2018-05-01T01:24:22.479Z,9.10
2018-05-01T01:24:54.108Z,9.10
2018-05-01T01:25:25.754Z,9.20
2018-05-01T01:25:57.381Z,9.10
2018-05-01T01:26:29.010Z,9.10
2018-05-01T01:27:00.629Z,9.20
2018-05-01T01:27:32.270Z,9.10
2018-05-01T01:28:03.916Z,9.10
2018-05-01T01:28:35.553Z,9.10
2018-05-01T01:29:07.177Z,9.10
2018-05-01T01:29:38.817Z,9.10
2018-05-01T01:30:10.443Z,9.10
2018-05-01T01:30:42.083Z,9.10
2018-05-01T01:31:13.720Z,9.00
2018-05-01T01:31:45.369Z,9.00
2018-05-01T01:32:17.012Z,9.10
2018-05-01T01:32:51.600Z,9.00
2018-05-01T01:33:23.215Z,9.00
2018-05-01T01:33:54.831Z,9.00
2018-05-01T01:34:26.499Z,9.10
2018-05-01T01:34:57.880Z,9.10
2018-05-01T01:35:29.258Z,9.10
2018-05-01T01:36:00.623Z,9.10
2018-05-01T01:36:31.990Z,9.10
2018-05-01T01:37:03.453Z,9.10
2018-05-01T01:37:34.839Z,9.10
2018-05-01T01:38:06.184Z,9.10
2018-05-01T01:38:37.555Z,9.10
2018-05-01T01:39:08.938Z,9.10
2018-05-01T01:39:40.327Z,9.10
2018-05-01T01:40:11.711Z,9.10
2018-05-01T01:40:43.077Z,9.10
2018-05-01T01:41:14.419Z,9.10
2018-05-01T01:41:45.786Z,9.10
2018-05-01T01:42:17.138Z,9.00
2018-05-01T01:42:48.515Z,9.10
2018-05-01T01:43:19.875Z,9.00
2018-05-01T01:43:51.264Z,9.10
2018-05-01T01:44:22.636Z,9.10
2018-05-01T01:44:53.994Z,9.10
2018-05-01T01:45:25.363Z,9.10
2018-05-01T01:45:56.726Z,9.10
2018-05-01T01:46:28.114Z,9.10
2018-05-01T01:46:59.486Z,9.10
2018-05-01T01:47:30.840Z,9.10
2018-05-01T01:48:02.202Z,9.00
2018-05-01T01:48:33.578Z,9.00
2018-05-01T01:49:04.942Z,9.00
2018-05-01T01:49:36.332Z,9.00
2018-05-01T01:50:07.713Z,9.00
2018-05-01T01:50:39.107Z,9.10
2018-05-01T01:51:10.483Z,9.00
2018-05-01T01:51:41.844Z,9.00
2018-05-01T01:52:13.216Z,9.00
2018-05-01T01:52:44.600Z,9.10
2018-05-01T01:53:15.950Z,9.00
2018-05-01T01:53:47.318Z,9.10
2018-05-01T01:54:18.677Z,9.10
2018-05-01T01:54:50.031Z,9.10
2018-05-01T01:55:21.392Z,9.00
2018-05-01T01:55:52.764Z,9.10
2018-05-01T01:56:24.121Z,9.00
2018-05-01T01:56:55.472Z,8.90
2018-05-01T01:57:26.820Z,9.00
2018-05-01T01:57:58.205Z,9.00
2018-05-01T01:58:29.550Z,9.00
2018-05-01T01:59:00.918Z,9.00
2018-05-01T01:59:32.272Z,9.00
2018-05-01T02:00:03.640Z,9.00
2018-05-01T02:00:35.006Z,9.00
2018-05-01T02:01:06.380Z,9.00
2018-05-01T02:01:37.756Z,9.00
2018-05-01T02:02:09.104Z,8.90
2018-05-01T02:02:40.459Z,8.90
2018-05-01T02:03:11.810Z,8.90
2018-05-01T02:03:43.173Z,8.90
2018-05-01T02:04:14.538Z,8.90
2018-05-01T02:04:45.950Z,8.90
2018-05-01T02:05:17.318Z,8.90
2018-05-01T02:05:48.676Z,8.90
2018-05-01T02:06:20.048Z,8.90
2018-05-01T02:06:51.412Z,8.90
2018-05-01T02:07:22.780Z,8.90
2018-05-01T02:07:54.161Z,8.90
2018-05-01T02:08:25.552Z,8.90
2018-05-01T02:08:56.938Z,8.90
2018-05-01T02:09:28.314Z,8.90
2018-05-01T02:09:59.694Z,8.90
2018-05-01T02:10:31.050Z,8.90
2018-05-01T02:11:02.398Z,8.90
2018-05-01T02:11:33.766Z,8.90
2018-05-01T02:12:05.120Z,8.90
2018-05-01T02:12:36.487Z,8.80
2018-05-01T02:13:07.860Z,8.90
2018-05-01T02:13:39.224Z,8.80
2018-05-01T02:14:10.594Z,8.80
2018-05-01T02:14:41.971Z,8.80
2018-05-01T02:15:13.334Z,8.80
2018-05-01T02:15:44.698Z,8.80
2018-05-01T02:16:16.064Z,8.80
2018-05-01T02:16:47.448Z,8.80
2018-05-01T02:17:18.828Z,8.70
2018-05-01T02:17:50.196Z,8.70
2018-05-01T02:18:21.568Z,8.70
2018-05-01T02:18:52.933Z,8.70
2018-05-01T02:19:24.298Z,8.70
2018-05-01T02:19:55.641Z,8.70
2018-05-01T02:20:27.000Z,8.70
2018-05-01T02:20:58.354Z,8.70
2018-05-01T02:21:29.704Z,8.70
2018-05-01T02:22:01.088Z,8.70
2018-05-01T02:22:32.442Z,8.70
2018-05-01T02:23:03.804Z,8.70
2018-05-01T02:23:35.169Z,8.70
2018-05-01T02:24:06.536Z,8.70
2018-05-01T02:24:37.950Z,8.70
2018-05-01T02:25:09.310Z,8.60
2018-05-01T02:25:40.656Z,8.60
2018-05-01T02:26:12.024Z,8.70
2018-05-01T02:26:43.454Z,8.70
2018-05-01T02:27:14.810Z,8.60
2018-05-01T02:27:46.150Z,8.60
2018-05-01T02:28:17.520Z,8.60
2018-05-01T02:28:48.883Z,8.60
2018-05-01T02:29:20.246Z,8.60
2018-05-01T02:29:51.604Z,8.60
2018-05-01T02:30:23.067Z,8.60
2018-05-01T02:30:54.368Z,8.60
2018-05-01T02:31:25.768Z,8.60
2018-05-01T02:31:57.121Z,8.60
2018-05-01T02:32:28.506Z,8.60
2018-05-01T02:32:59.886Z,8.60
2018-05-01T02:33:31.254Z,8.60
2018-05-01T02:34:02.605Z,8.60
2018-05-01T02:34:33.979Z,8.60
2018-05-01T02:35:05.348Z,8.60
2018-05-01T02:35:36.706Z,8.50
2018-05-01T02:36:08.109Z,8.60
2018-05-01T02:36:39.443Z,8.60
2018-05-01T02:37:10.813Z,8.60
2018-05-01T02:37:42.200Z,8.60
2018-05-01T02:38:13.563Z,8.60
2018-05-01T02:38:44.940Z,8.60
2018-05-01T02:39:16.298Z,8.50
2018-05-01T02:39:47.654Z,8.60
2018-05-01T02:40:19.030Z,8.60
2018-05-01T02:40:50.390Z,8.60
2018-05-01T02:41:21.767Z,8.60
2018-05-01T02:41:53.142Z,8.60
2018-05-01T02:42:28.658Z,8.60
2018-05-01T02:43:00.027Z,8.60
2018-05-01T02:43:31.396Z,8.60
2018-05-01T02:44:02.772Z,8.60
2018-05-01T02:44:34.144Z,8.60
2018-05-01T02:45:05.544Z,8.60
2018-05-01T02:45:37.044Z,8.50
2018-05-01T02:46:08.411Z,8.60
2018-05-01T02:46:39.770Z,8.50
2018-05-01T02:47:11.139Z,8.50
2018-05-01T02:47:42.504Z,8.50
2018-05-01T02:48:13.898Z,8.50
2018-05-01T02:48:45.273Z,8.50
2018-05-01T02:49:16.649Z,8.60
2018-05-01T02:49:48.048Z,8.50
2018-05-01T02:50:19.406Z,8.60
2018-05-01T02:50:50.758Z,8.60
2018-05-01T02:51:22.141Z,8.60
2018-05-01T02:51:53.516Z,8.60
2018-05-01T02:52:24.886Z,8.60
2018-05-01T02:52:56.248Z,8.60
2018-05-01T02:53:27.623Z,8.50
2018-05-01T02:53:58.971Z,8.50
2018-05-01T02:54:30.346Z,8.50
2018-05-01T02:55:01.729Z,8.50
2018-05-01T02:55:33.084Z,8.40
2018-05-01T02:56:04.454Z,8.50
2018-05-01T02:56:35.792Z,8.50
2018-05-01T02:57:07.145Z,8.50
2018-05-01T02:57:38.505Z,8.60
2018-05-01T02:58:09.855Z,8.50
2018-05-01T02:58:41.225Z,8.50
2018-05-01T02:59:12.585Z,8.50
2018-05-01T02:59:43.966Z,8.50
2018-05-01T03:00:15.333Z,8.50
2018-05-01T03:00:46.686Z,8.50
2018-05-01T03:01:18.044Z,8.50
2018-05-01T03:01:49.406Z,8.50
2018-05-01T03:02:20.772Z,8.60
2018-05-01T03:02:52.146Z,8.50
2018-05-01T03:03:23.508Z,8.50
2018-05-01T03:03:54.880Z,8.50
2018-05-01T03:04:26.252Z,8.50
2018-05-01T03:04:57.636Z,8.50
2018-05-01T03:05:29.034Z,8.50
2018-05-01T03:06:00.392Z,8.50
2018-05-01T03:06:31.769Z,8.40
2018-05-01T03:07:03.146Z,8.50
2018-05-01T03:07:34.513Z,8.40
2018-05-01T03:08:05.885Z,8.40
2018-05-01T03:08:37.252Z,8.40
2018-05-01T03:09:08.607Z,8.40
2018-05-01T03:09:40.017Z,8.40
2018-05-01T03:10:11.363Z,8.40
2018-05-01T03:10:42.717Z,8.40
2018-05-01T03:11:14.092Z,8.40
2018-05-01T03:11:45.452Z,8.40
2018-05-01T03:12:16.825Z,8.40
2018-05-01T03:12:48.180Z,8.50
2018-05-01T03:13:19.568Z,8.40
2018-05-01T03:13:50.920Z,8.40
2018-05-01T03:14:22.272Z,8.40
2018-05-01T03:14:53.616Z,8.40
2018-05-01T03:15:24.964Z,8.40
2018-05-01T03:15:56.313Z,8.50
2018-05-01T03:16:27.658Z,8.40
2018-05-01T03:16:59.010Z,8.40
2018-05-01T03:17:30.390Z,8.40
2018-05-01T03:18:01.740Z,8.40
2018-05-01T03:18:33.109Z,8.40
2018-05-01T03:19:04.472Z,8.40
2018-05-01T03:19:35.856Z,8.40
2018-05-01T03:20:07.239Z,8.40
2018-05-01T03:20:38.622Z,8.40
2018-05-01T03:21:10.012Z,8.30
2018-05-01T03:21:41.379Z,8.30
2018-05-01T03:22:12.727Z,8.40
2018-05-01T03:22:44.092Z,8.40
2018-05-01T03:23:15.462Z,8.30
2018-05-01T03:23:46.839Z,8.30
2018-05-01T03:24:18.217Z,8.40
2018-05-01T03:24:49.594Z,8.30
2018-05-01T03:25:20.959Z,8.40
2018-05-01T03:25:52.359Z,8.40
2018-05-01T03:26:23.724Z,8.40
2018-05-01T03:26:55.102Z,8.30
2018-05-01T03:27:26.483Z,8.30
2018-05-01T03:27:57.837Z,8.40
2018-05-01T03:28:29.211Z,8.30
2018-05-01T03:29:00.575Z,8.30
2018-05-01T03:29:31.937Z,8.30
2018-05-01T03:30:03.311Z,8.30
2018-05-01T03:30:34.676Z,8.30
2018-05-01T03:31:06.044Z,8.30
2018-05-01T03:31:37.393Z,8.30
2018-05-01T03:32:08.744Z,8.30
2018-05-01T03:32:40.110Z,8.30
2018-05-01T03:33:11.465Z,8.30
2018-05-01T03:33:42.813Z,8.30
2018-05-01T03:34:14.172Z,8.30
2018-05-01T03:34:45.511Z,8.30
2018-05-01T03:35:16.883Z,8.30
2018-05-01T03:35:48.247Z,8.30
2018-05-01T03:36:19.611Z,8.30
2018-05-01T03:36:50.977Z,8.30
2018-05-01T03:37:22.337Z,8.30
2018-05-01T03:37:53.705Z,8.40
2018-05-01T03:38:25.071Z,8.30
2018-05-01T03:38:56.461Z,8.30
2018-05-01T03:39:27.814Z,8.20
2018-05-01T03:39:59.177Z,8.20
2018-05-01T03:40:30.539Z,8.20
2018-05-01T03:41:01.908Z,8.30
2018-05-01T03:41:33.270Z,8.20
2018-05-01T03:42:04.670Z,8.30
2018-05-01T03:42:36.026Z,8.20
2018-05-01T03:43:07.477Z,8.20
2018-05-01T03:43:38.841Z,8.10
2018-05-01T03:44:10.203Z,8.10
2018-05-01T03:44:41.559Z,8.10
2018-05-01T03:45:12.911Z,8.10
2018-05-01T03:45:44.281Z,8.10
2018-05-01T03:46:15.630Z,8.10
2018-05-01T03:46:46.987Z,8.00
2018-05-01T03:47:18.337Z,8.00
2018-05-01T03:47:49.713Z,8.10
2018-05-01T03:48:21.063Z,8.10
2018-05-01T03:53:43.187Z,8.10
2018-05-01T03:54:14.531Z,8.00
2018-05-01T03:54:46.197Z,8.00
2018-05-01T03:55:17.581Z,8.00
2018-05-01T03:55:48.964Z,8.00
2018-05-01T03:56:20.338Z,8.10
2018-05-01T03:56:51.682Z,8.00
2018-05-01T03:57:23.059Z,8.00
2018-05-01T03:57:54.430Z,8.00
2018-05-01T03:58:25.783Z,8.00
2018-05-01T03:58:57.161Z,8.10
2018-05-01T03:59:28.551Z,8.10
2018-05-01T03:59:59.958Z,8.00
2018-05-01T04:00:31.293Z,8.00
2018-05-01T04:01:02.613Z,8.00
2018-05-01T04:01:33.945Z,8.00
2018-05-01T04:02:05.321Z,8.00
2018-05-01T04:02:36.709Z,8.00
2018-05-01T04:03:08.035Z,7.90
2018-05-01T04:03:39.336Z,7.90
2018-05-01T04:04:10.655Z,8.00
2018-05-01T04:04:41.981Z,7.90
2018-05-01T04:05:13.299Z,7.90
2018-05-01T04:05:44.643Z,7.90
2018-05-01T04:06:15.999Z,8.00
2018-05-01T04:06:47.355Z,8.00
2018-05-01T04:07:18.713Z,8.00
2018-05-01T04:07:50.061Z,8.00
2018-05-01T04:08:21.435Z,8.00
2018-05-01T04:08:52.781Z,8.10
2018-05-01T04:09:24.162Z,8.00
2018-05-01T04:09:55.531Z,8.00
2018-05-01T04:10:26.914Z,8.10
2018-05-01T04:10:58.275Z,8.10
2018-05-01T04:11:29.656Z,8.10
2018-05-01T04:12:00.995Z,8.10
2018-05-01T04:12:32.347Z,8.00
2018-05-01T04:13:03.717Z,8.10
2018-05-01T04:13:35.079Z,8.00
2018-05-01T04:14:06.437Z,8.00
2018-05-01T04:14:37.802Z,8.00
2018-05-01T04:15:09.154Z,8.00
2018-05-01T04:15:40.514Z,8.00
2018-05-01T04:16:11.887Z,8.00
2018-05-01T04:16:43.272Z,8.00
2018-05-01T04:17:14.639Z,8.00
2018-05-01T04:17:45.999Z,8.00
2018-05-01T04:18:17.402Z,8.00
2018-05-01T04:18:48.758Z,8.00
2018-05-01T04:19:20.119Z,8.10
2018-05-01T04:19:51.465Z,8.10
2018-05-01T04:20:22.823Z,8.10
2018-05-01T04:20:54.187Z,8.10
2018-05-01T04:21:25.563Z,8.10
2018-05-01T04:21:56.913Z,8.10
2018-05-01T04:22:28.279Z,8.00
2018-05-01T04:22:59.638Z,8.10
2018-05-01T04:23:30.991Z,8.10
2018-05-01T04:24:02.353Z,8.00
2018-05-01T04:24:33.715Z,8.10
2018-05-01T04:25:05.066Z,8.00
2018-05-01T04:25:36.428Z,8.00
2018-05-01T04:26:07.810Z,8.10
2018-05-01T04:26:39.181Z,8.00
2018-05-01T04:27:10.597Z,8.00
2018-05-01T04:27:41.959Z,8.00
2018-05-01T04:28:14.886Z,8.00
2018-05-01T04:28:46.250Z,8.00
2018-05-01T04:29:17.633Z,8.00
2018-05-01T04:29:49.017Z,8.00
2018-05-01T04:30:20.383Z,8.00
2018-05-01T04:30:51.753Z,8.00
2018-05-01T04:31:23.106Z,8.00
2018-05-01T04:31:54.451Z,8.10
2018-05-01T04:32:25.842Z,8.00
2018-05-01T04:32:57.190Z,8.00
2018-05-01T04:33:28.544Z,8.00
2018-05-01T04:33:59.915Z,8.00
2018-05-01T04:34:31.290Z,8.10
2018-05-01T04:35:02.647Z,8.00
2018-05-01T04:35:34.009Z,8.00
2018-05-01T04:36:05.368Z,8.00
2018-05-01T04:36:36.731Z,8.00
2018-05-01T04:37:08.109Z,8.00
2018-05-01T04:37:39.479Z,8.00
2018-05-01T04:38:10.839Z,8.00
2018-05-01T04:38:42.207Z,8.00
2018-05-01T04:39:13.563Z,8.00
2018-05-01T04:39:44.929Z,8.10
2018-05-01T04:40:16.305Z,8.00
2018-05-01T04:40:47.681Z,8.10
2018-05-01T04:41:19.047Z,8.10
2018-05-01T04:41:50.414Z,8.00
2018-05-01T04:42:21.785Z,8.00
2018-05-01T04:42:53.139Z,8.00
2018-05-01T04:43:24.503Z,8.00
2018-05-01T04:43:55.875Z,8.00
2018-05-01T04:44:27.241Z,8.00
2018-05-01T04:44:58.603Z,8.00
2018-05-01T04:45:29.959Z,8.00
2018-05-01T04:46:01.317Z,8.00
2018-05-01T04:46:32.678Z,8.00
2018-05-01T04:47:04.037Z,7.90
2018-05-01T04:47:35.413Z,8.00
2018-05-01T04:48:06.799Z,7.90
2018-05-01T04:48:38.161Z,7.90
2018-05-01T04:49:09.509Z,7.90
2018-05-01T04:49:40.879Z,7.90
2018-05-01T04:50:12.263Z,7.90
2018-05-01T04:50:43.605Z,7.90
2018-05-01T04:51:14.973Z,7.90
2018-05-01T04:51:46.419Z,7.90
2018-05-01T04:52:17.699Z,7.90
2018-05-01T04:52:49.060Z,7.80
2018-05-01T04:53:20.411Z,7.80
2018-05-01T04:53:51.757Z,7.80
2018-05-01T04:54:23.098Z,7.80
2018-05-01T04:54:54.455Z,7.80
2018-05-01T04:55:25.809Z,7.80
2018-05-01T04:55:57.174Z,8.10
2018-05-01T04:56:28.522Z,7.80
2018-05-01T04:56:59.877Z,7.80
2018-05-01T04:57:31.227Z,7.80
2018-05-01T04:58:02.601Z,7.80
2018-05-01T04:58:33.951Z,7.80
2018-05-01T04:59:05.299Z,7.80
2018-05-01T04:59:36.657Z,7.80
2018-05-01T05:00:08.027Z,7.80
2018-05-01T05:00:39.411Z,7.80
2018-05-01T05:01:10.769Z,7.80
2018-05-01T05:01:42.159Z,7.80
2018-05-01T05:02:13.525Z,7.90
2018-05-01T05:02:44.884Z,7.80
2018-05-01T05:03:16.276Z,7.80
2018-05-01T05:03:47.633Z,7.80
2018-05-01T05:04:19.011Z,7.80
2018-05-01T05:04:50.365Z,7.80
2018-05-01T05:05:21.731Z,7.80
2018-05-01T05:05:53.111Z,7.80
2018-05-01T05:06:24.479Z,7.80
2018-05-01T05:06:55.824Z,7.80
2018-05-01T05:07:27.217Z,7.80
2018-05-01T05:07:58.574Z,7.80
2018-05-01T05:08:30.002Z,7.80
2018-05-01T05:09:01.324Z,7.80
2018-05-01T05:09:32.719Z,7.80
2018-05-01T05:10:04.059Z,7.80
2018-05-01T05:10:35.419Z,7.80
2018-05-01T05:11:06.795Z,7.80
2018-05-01T05:11:38.128Z,7.80
2018-05-01T05:12:09.489Z,7.80
2018-05-01T05:12:40.835Z,7.80
2018-05-01T05:13:12.189Z,7.80
2018-05-01T05:13:43.544Z,7.80
2018-05-01T05:14:14.903Z,7.80
2018-05-01T05:14:46.226Z,7.80
2018-05-01T05:15:17.604Z,7.90
2018-05-01T05:15:48.998Z,7.80
2018-05-01T05:16:20.364Z,7.90
2018-05-01T05:16:51.704Z,7.80
2018-05-01T05:17:23.071Z,7.90
2018-05-01T05:17:54.439Z,7.80
2018-05-01T05:18:25.821Z,7.90
2018-05-01T05:18:57.174Z,7.90
2018-05-01T05:19:28.539Z,7.90
2018-05-01T05:19:59.900Z,7.90
2018-05-01T05:20:31.253Z,7.90
2018-05-01T05:21:02.612Z,7.90
2018-05-01T05:21:33.969Z,7.90
2018-05-01T05:22:05.361Z,7.90
2018-05-01T05:22:36.726Z,7.90
2018-05-01T05:23:08.104Z,7.90
2018-05-01T05:23:39.466Z,7.90
2018-05-01T05:24:10.831Z,7.90
2018-05-01T05:24:42.197Z,8.00
2018-05-01T05:25:13.551Z,7.90
2018-05-01T05:25:44.922Z,8.00
2018-05-01T05:26:16.301Z,7.90
2018-05-01T05:26:47.676Z,7.90
2018-05-01T05:27:19.048Z,7.80
2018-05-01T05:27:50.402Z,7.90
2018-05-01T05:28:21.799Z,7.90
2018-05-01T05:28:53.194Z,7.90
2018-05-01T05:29:24.589Z,7.80
2018-05-01T05:29:55.943Z,7.70
2018-05-01T05:30:27.313Z,7.80
2018-05-01T05:30:58.668Z,7.80
2018-05-01T05:31:30.025Z,7.90
2018-05-01T05:32:01.393Z,7.80
2018-05-01T05:32:32.766Z,7.90
2018-05-01T05:33:04.135Z,7.80
2018-05-01T05:33:35.495Z,7.80
2018-05-01T05:34:06.861Z,7.90
2018-05-01T05:34:38.228Z,7.90
2018-05-01T05:35:09.592Z,7.90
2018-05-01T05:35:40.949Z,7.90
2018-05-01T05:36:12.331Z,7.90
2018-05-01T05:36:43.725Z,7.90
2018-05-01T05:37:15.091Z,7.90
2018-05-01T05:37:46.458Z,7.80
2018-05-01T05:38:17.827Z,7.80
2018-05-01T05:38:49.191Z,7.80
2018-05-01T05:39:20.532Z,7.90
2018-05-01T05:39:51.937Z,7.90
2018-05-01T05:40:23.319Z,7.90
2018-05-01T05:40:54.706Z,7.90
2018-05-01T05:41:26.069Z,7.90
2018-05-01T05:41:57.454Z,7.90
2018-05-01T05:42:28.825Z,7.90
2018-05-01T05:43:00.213Z,8.00
2018-05-01T05:43:31.572Z,7.90
2018-05-01T05:44:02.936Z,7.90
2018-05-01T05:44:34.298Z,7.90
2018-05-01T05:45:05.658Z,7.90
2018-05-01T05:45:37.034Z,7.90
2018-05-01T05:46:08.452Z,7.90
2018-05-01T05:46:39.830Z,7.90
2018-05-01T05:47:11.220Z,7.90
2018-05-01T05:47:42.579Z,7.90
2018-05-01T05:48:13.980Z,7.90
2018-05-01T05:48:45.400Z,7.90
2018-05-01T05:49:16.771Z,7.90
2018-05-01T05:49:48.130Z,7.90
2018-05-01T05:50:19.487Z,7.90
2018-05-01T05:50:50.833Z,7.90
2018-05-01T05:51:22.192Z,7.90
2018-05-01T05:51:53.563Z,7.90
2018-05-01T05:52:24.939Z,7.90
2018-05-01T05:52:56.331Z,7.90
2018-05-01T05:53:27.693Z,7.90
2018-05-01T05:53:59.058Z,7.90
2018-05-01T05:54:30.403Z,7.90
2018-05-01T05:55:01.763Z,7.90
2018-05-01T05:55:33.142Z,7.90
2018-05-01T05:56:04.511Z,7.90
2018-05-01T05:56:35.881Z,7.90
2018-05-01T05:57:07.243Z,7.90
2018-05-01T05:57:38.616Z,7.90
2018-05-01T05:58:09.964Z,7.80
2018-05-01T05:58:41.318Z,7.80
2018-05-01T05:59:12.684Z,7.80
2018-05-01T05:59:44.031Z,7.80
2018-05-01T06:00:15.381Z,7.70
2018-05-01T06:00:46.750Z,7.80
2018-05-01T06:01:18.140Z,7.80
2018-05-01T06:01:49.534Z,7.80
2018-05-01T06:02:20.898Z,7.90
2018-05-01T06:02:52.241Z,7.80
2018-05-01T06:03:23.621Z,7.80
2018-05-01T06:03:54.988Z,7.90
2018-05-01T06:04:26.342Z,7.80
2018-05-01T06:04:57.706Z,7.80
2018-05-01T06:05:29.060Z,7.80
2018-05-01T06:06:00.424Z,7.90
2018-05-01T06:06:31.778Z,7.80
2018-05-01T06:07:03.146Z,7.80
2018-05-01T06:07:34.511Z,7.80
2018-05-01T06:08:05.850Z,7.80
2018-05-01T06:08:37.217Z,7.90
2018-05-01T06:09:08.577Z,7.90
2018-05-01T06:09:39.950Z,7.90
2018-05-01T06:10:11.307Z,7.90
2018-05-01T06:10:42.684Z,7.90
2018-05-01T06:11:14.056Z,7.90
2018-05-01T06:11:45.424Z,7.90
2018-05-01T06:12:16.770Z,7.90
2018-05-01T06:12:48.138Z,7.90
2018-05-01T06:13:19.492Z,7.90
2018-05-01T06:13:50.948Z,7.90
2018-05-01T06:14:22.252Z,7.90
2018-05-01T06:14:53.629Z,7.90
2018-05-01T06:15:25.003Z,7.90
2018-05-01T06:15:56.379Z,7.90
2018-05-01T06:16:27.722Z,7.90
2018-05-01T06:16:59.091Z,7.90
2018-05-01T06:17:30.439Z,7.90
2018-05-01T06:18:01.806Z,7.90
2018-05-01T06:18:33.162Z,7.90
2018-05-01T06:19:04.557Z,8.00
2018-05-01T06:19:35.932Z,7.90
2018-05-01T06:20:07.293Z,7.90
2018-05-01T06:20:38.652Z,8.00
2018-05-01T06:21:10.033Z,8.00
2018-05-01T06:21:41.402Z,8.00
2018-05-01T06:22:12.766Z,8.00
2018-05-01T06:22:44.117Z,8.10
2018-05-01T06:23:15.568Z,8.10
2018-05-01T06:23:46.938Z,8.00
2018-05-01T06:24:18.315Z,8.10
2018-05-01T06:24:49.698Z,8.10
2018-05-01T06:25:21.047Z,8.10
2018-05-01T06:25:52.417Z,8.10
2018-05-01T06:26:23.790Z,8.10
2018-05-01T06:26:55.133Z,8.10
2018-05-01T06:27:26.497Z,8.10
2018-05-01T06:27:57.861Z,8.10
2018-05-01T06:28:29.221Z,8.10
2018-05-01T06:29:00.582Z,8.10
2018-05-01T06:29:31.952Z,8.20
2018-05-01T06:30:03.324Z,8.20
2018-05-01T06:30:34.673Z,8.20
2018-05-01T06:31:06.145Z,8.20
2018-05-01T06:31:37.398Z,8.20
2018-05-01T06:32:08.772Z,8.20
2018-05-01T06:32:40.130Z,8.20
2018-05-01T06:33:11.506Z,8.30
2018-05-01T06:33:42.868Z,8.20
2018-05-01T06:34:14.238Z,8.20
2018-05-01T06:34:45.599Z,8.20
2018-05-01T06:35:16.951Z,8.20
2018-05-01T06:35:48.306Z,8.20
2018-05-01T06:36:19.676Z,8.20
2018-05-01T06:36:51.033Z,8.30
2018-05-01T06:37:22.421Z,8.30
2018-05-01T06:37:53.766Z,8.20
2018-05-01T06:38:25.121Z,8.30
2018-05-01T06:38:56.477Z,8.30
2018-05-01T06:39:27.832Z,8.30
2018-05-01T06:39:59.180Z,8.30
2018-05-01T06:40:30.539Z,8.30
2018-05-01T06:41:01.935Z,8.20
2018-05-01T06:41:33.281Z,8.20
2018-05-01T06:42:04.616Z,8.20
2018-05-01T06:42:35.972Z,8.20
2018-05-01T06:43:07.336Z,8.20
2018-05-01T06:43:38.682Z,8.20
2018-05-01T06:44:10.047Z,8.20
2018-05-01T06:44:41.395Z,8.20
2018-05-01T06:45:12.762Z,8.20
2018-05-01T06:45:44.124Z,8.20
2018-05-01T06:46:15.485Z,8.30
2018-05-01T06:46:46.855Z,8.30
2018-05-01T06:47:18.230Z,8.30
2018-05-01T06:47:49.594Z,8.30
2018-05-01T06:48:20.942Z,8.30
2018-05-01T06:48:52.316Z,8.30
2018-05-01T06:49:23.674Z,8.30
2018-05-01T06:49:55.045Z,8.30
2018-05-01T06:50:26.419Z,8.40
2018-05-01T06:50:57.782Z,8.40
2018-05-01T06:51:29.144Z,8.40
2018-05-01T06:52:00.507Z,8.40
2018-05-01T06:52:31.864Z,8.40
2018-05-01T06:53:03.204Z,8.40
2018-05-01T06:53:34.556Z,8.50
2018-05-01T06:54:05.904Z,8.40
2018-05-01T06:54:37.264Z,8.40
2018-05-01T06:55:08.662Z,8.40
2018-05-01T06:55:40.036Z,8.40
2018-05-01T06:56:11.407Z,8.40
2018-05-01T06:56:42.764Z,8.30
2018-05-01T06:57:14.136Z,8.40
2018-05-01T06:57:45.537Z,8.40
2018-05-01T06:58:16.842Z,8.30
2018-05-01T06:58:48.194Z,8.40
2018-05-01T06:59:19.550Z,8.40
2018-05-01T06:59:50.900Z,8.40
2018-05-01T07:00:22.266Z,8.40
2018-05-01T07:00:53.616Z,8.30
2018-05-01T07:01:24.992Z,8.30
2018-05-01T07:01:56.339Z,8.40
2018-05-01T07:02:27.701Z,8.30
2018-05-01T07:02:59.066Z,8.30
2018-05-01T07:03:30.436Z,8.40